This is the latest recevied weather packets stored in our database for station/object EA7JCM-13. If no packets are shown the sender has not sent any weather packets the latest 10 day(s).
| Time | Temp. | Humidity | Pressure | Rain* | Wind** | Luminosity | Snow |
|---|---|---|---|---|---|---|---|
| 1777271404 | 16.67° C | 49% | 1011.9 hPa | 0 mm | - | - | - |
| 1777271103 | 16.11° C | 52% | 1011.9 hPa | 0 mm | - | - | - |
| 1777270803 | 16.11° C | 54% | 1011.8 hPa | 0 mm | - | - | - |
| 1777270503 | 15.56° C | 54% | 1011.7 hPa | 0 mm | - | - | - |
| 1777270203 | 15.56° C | 54% | 1011.6 hPa | 0 mm | - | - | - |
| 1777269904 | 15° C | 55% | 1011.7 hPa | 0 mm | - | - | - |
| 1777269604 | 15.56° C | 55% | 1011.8 hPa | 0 mm | - | - | - |
| 1777269303 | 15° C | 57% | 1011.8 hPa | 0 mm | - | - | - |
| 1777269003 | 15.56° C | 54% | 1011.6 hPa | 0 mm | - | - | - |
| 1777268704 | 15.56° C | 53% | 1011.7 hPa | 0 mm | - | - | - |
| 1777268404 | 14.44° C | 61% | 1011.5 hPa | 0 mm | - | - | - |
| 1777268104 | 13.89° C | 71% | 1011.4 hPa | 0 mm | - | - | - |
| 1777267803 | 13.89° C | 70% | 1011.7 hPa | 0 mm | - | - | - |
| 1777267503 | 13.89° C | 72% | 1011.7 hPa | 0 mm | - | - | - |
| 1777267204 | 13.89° C | 73% | 1011.6 hPa | 0 mm | - | - | - |
| 1777266903 | 14.44° C | 72% | 1011.9 hPa | 0 mm | - | - | - |
| 1777266604 | 14.44° C | 68% | 1011.7 hPa | 0 mm | - | - | - |
| 1777266303 | 14.44° C | 68% | 1011.6 hPa | 0 mm | - | - | - |
| 1777266004 | 14.44° C | 67% | 1011.4 hPa | 0 mm | - | - | - |
| 1777265703 | 13.89° C | 69% | 1011.6 hPa | 0 mm | - | - | - |
| 1777265403 | 14.44° C | 68% | 1011.9 hPa | 0 mm | - | - | - |
| 1777265103 | 15° C | 64% | 1011.5 hPa | 0 mm | - | - | - |
| 1777264803 | 15.56° C | 54% | 1011.6 hPa | 0 mm | - | - | - |
| 1777264504 | 15° C | 58% | 1011.7 hPa | 0 mm | - | - | - |
| 1777264203 | 15° C | 66% | 1011.6 hPa | 0 mm | - | - | - |
* Rain latest hour (hover to see other rain measurements)
** Current wind speed in m/s (hover to see current wind gust speed)